Time;durP1;ratioP1;P1;durP2;ratioP2;P2;SDS_P1;SDS_P2;PMS_P1;PMS_P2;Temp;Humidity;BMP_temperature;BMP_pressure;BME280_temperature;BME280_humidity;BME280_pressure;Samples;Min_cycle;Max_cycle;Signal;HPM_P1;HPM_P2
2022/12/11 00:01:16;;;;;;;1999.90;999.90;;;0.50;99.90;;;;;;4938998;29;20028;-81
2022/12/11 00:03:42;;;;;;;1999.90;999.90;;;0.60;99.90;;;;;;4938630;29;20074;-80
2022/12/11 00:06:11;;;;;;;1999.90;999.90;;;0.60;99.90;;;;;;4938506;29;20036;-81
2022/12/11 00:08:37;;;;;;;1999.90;999.90;;;0.60;99.90;;;;;;4938426;29;20102;-80
2022/12/11 00:11:03;;;;;;;1999.90;999.90;;;0.60;99.90;;;;;;4938709;29;20484;-80
2022/12/11 00:13:29;;;;;;;1999.90;999.90;;;0.60;99.90;;;;;;4938575;29;20034;-80
2022/12/11 00:15:57;;;;;;;1999.90;999.90;;;0.70;99.90;;;;;;4938229;29;20533;-80
2022/12/11 00:18:23;;;;;;;1999.90;999.90;;;0.70;99.90;;;;;;4938412;29;20502;-81
2022/12/11 00:20:49;;;;;;;1999.90;999.90;;;0.70;99.90;;;;;;4919780;29;20028;-80
2022/12/11 00:23:14;;;;;;;1999.90;999.90;;;0.60;99.90;;;;;;4919309;29;20087;-80
2022/12/11 00:25:43;;;;;;;1999.90;999.90;;;0.70;99.90;;;;;;4918940;29;20020;-81
2022/12/11 00:28:09;;;;;;;1999.90;999.90;;;0.70;99.90;;;;;;4919120;29;20036;-80
2022/12/11 00:30:39;;;;;;;1999.90;999.90;;;0.70;99.90;;;;;;4902110;29;20491;-80
2022/12/11 00:33:04;;;;;;;1999.90;999.90;;;0.80;99.90;;;;;;4919138;29;20031;-81
2022/12/11 00:35:30;;;;;;;1999.90;999.90;;;0.90;99.90;;;;;;4918668;29;20024;-80
2022/12/11 00:37:55;;;;;;;1999.90;999.90;;;0.80;99.90;;;;;;4919137;29;20047;-80
2022/12/11 00:40:21;;;;;;;1999.90;999.90;;;0.90;99.90;;;;;;4918762;29;20063;-81
2022/12/11 00:42:47;;;;;;;1999.90;999.90;;;0.90;99.90;;;;;;4918978;29;20063;-80
2022/12/11 00:45:12;;;;;;;1999.90;999.90;;;0.90;99.90;;;;;;4928274;29;20032;-80
2022/12/11 00:47:38;;;;;;;1999.90;999.90;;;0.90;99.90;;;;;;4937954;29;20059;-81
2022/12/11 00:50:04;;;;;;;1999.90;999.90;;;0.90;99.90;;;;;;4937733;29;20031;-81
2022/12/11 00:52:30;;;;;;;1999.90;999.90;;;0.90;99.90;;;;;;4937960;29;20027;-80
2022/12/11 00:54:55;;;;;;;1999.90;999.90;;;0.90;99.90;;;;;;4938041;29;20031;-80
2022/12/11 00:57:21;;;;;;;1999.90;999.90;;;1.00;99.90;;;;;;4920814;29;20028;-81
2022/12/11 00:59:46;;;;;;;1999.90;999.90;;;1.00;99.90;;;;;;4937600;29;20046;-81
2022/12/11 01:02:12;;;;;;;1999.90;999.90;;;1.00;99.90;;;;;;4936955;29;20020;-81
2022/12/11 01:04:37;;;;;;;1999.90;999.90;;;1.00;99.90;;;;;;4920336;29;20032;-81
2022/12/11 01:07:03;;;;;;;1999.90;999.90;;;1.00;99.90;;;;;;4937855;29;20031;-80
2022/12/11 01:12:13;;;;;;;1999.90;999.90;;;1.10;99.90;;;;;;4937188;29;20023;-81
2022/12/11 01:14:38;;;;;;;1999.90;999.90;;;1.10;99.90;;;;;;4919986;29;20040;-81
2022/12/11 01:17:04;;;;;;;1999.90;999.90;;;1.10;99.90;;;;;;4936726;29;20024;-80
2022/12/11 01:19:30;;;;;;;1999.90;999.90;;;1.10;99.90;;;;;;4913125;29;20024;-81
2022/12/11 01:21:55;;;;;;;1999.90;999.90;;;1.00;99.90;;;;;;4918028;29;20056;-81
2022/12/11 01:24:21;;;;;;;1999.90;999.90;;;1.00;99.90;;;;;;4928766;29;20060;-81
2022/12/11 01:26:46;;;;;;;1999.90;999.90;;;1.00;99.90;;;;;;4936747;29;20032;-81
2022/12/11 01:29:12;;;;;;;1999.90;999.90;;;1.00;99.90;;;;;;4937172;29;20078;-82
2022/12/11 01:31:38;;;;;;;1999.90;999.90;;;0.90;99.90;;;;;;4935180;29;20028;-81
2022/12/11 01:34:03;;;;;;;1999.90;999.90;;;1.00;99.90;;;;;;4917292;29;20028;-81
2022/12/11 01:36:29;;;;;;;1999.90;999.90;;;1.00;99.90;;;;;;4918117;29;20036;-81
2022/12/11 01:38:55;;;;;;;1999.90;999.90;;;1.00;99.90;;;;;;4918247;29;20107;-81
2022/12/11 01:41:21;;;;;;;1999.90;999.90;;;1.00;99.90;;;;;;4917895;29;20059;-81
2022/12/11 01:44:05;;;;;;;1999.90;999.90;;;1.00;99.90;;;;;;4900948;29;20040;-81
2022/12/11 01:46:33;;;;;;;1999.90;999.90;;;0.90;99.90;;;;;;4899050;29;20033;-81
2022/12/11 01:49:01;;;;;;;1999.90;999.90;;;0.90;99.90;;;;;;4899023;29;20032;-81
2022/12/11 01:51:28;;;;;;;1999.90;999.90;;;0.90;99.90;;;;;;4899195;29;20104;-80
2022/12/11 01:54:01;;;;;;;1999.90;999.90;;;0.80;99.90;;;;;;4882157;29;20377;-81
2022/12/11 01:56:29;;;;;;;1999.90;999.90;;;0.80;99.90;;;;;;4898608;29;20055;-80
2022/12/11 01:58:59;;;;;;;1999.90;999.90;;;0.80;99.90;;;;;;4898954;29;20060;-80
2022/12/11 02:01:33;;;;;;;1999.90;999.90;;;0.80;99.90;;;;;;4898858;29;20029;-80
2022/12/11 02:03:59;;;;;;;1999.90;999.90;;;0.80;99.90;;;;;;4919357;29;20036;-80
2022/12/11 02:06:36;;;;;;;1999.90;999.90;;;0.80;99.90;;;;;;4919478;29;20491;-80
2022/12/11 02:09:13;;;;;;;1999.90;999.90;;;0.80;99.90;;;;;;4919513;29;20031;-80
2022/12/11 02:11:51;;;;;;;1999.90;999.90;;;0.90;99.90;;;;;;4918619;29;20032;-81
2022/12/11 02:14:40;;;;;;;1999.90;999.90;;;0.80;99.90;;;;;;4916613;29;20074;-80
2022/12/11 02:17:14;;;;;;;1999.90;999.90;;;0.90;99.90;;;;;;4917567;29;20028;-81
2022/12/11 02:20:05;;;;;;;1999.90;999.90;;;0.90;99.90;;;;;;4900131;29;20032;-80
2022/12/11 02:22:55;;;;;;;1999.90;999.90;;;0.80;99.90;;;;;;4917120;29;20060;-80
2022/12/11 02:25:33;;;;;;;1999.90;999.90;;;0.80;99.90;;;;;;4917141;29;20098;-80
2022/12/11 02:28:31;;;;;;;1999.90;999.90;;;0.80;99.90;;;;;;4936061;29;20040;-81
2022/12/11 02:31:13;;;;;;;1999.90;999.90;;;0.80;99.90;;;;;;4936019;29;20028;-80
2022/12/11 02:34:04;;;;;;;1999.90;999.90;;;0.70;99.90;;;;;;4934824;29;20032;-81
2022/12/11 02:36:34;;;;;;;1999.90;999.90;;;0.80;99.90;;;;;;4931604;29;20075;-81
2022/12/11 02:39:03;;;;;;;1999.90;999.90;;;0.80;99.90;;;;;;4935145;29;20024;-80
2022/12/11 02:41:30;;;;;;;1999.90;999.90;;;0.80;99.90;;;;;;4919002;29;20036;-81
2022/12/11 02:43:57;;;;;;;1999.90;999.90;;;0.80;99.90;;;;;;4935958;29;20027;-81
2022/12/11 02:46:24;;;;;;;1999.90;999.90;;;0.80;99.90;;;;;;4935764;29;20047;-80
2022/12/11 02:48:51;;;;;;;1999.90;999.90;;;0.80;99.90;;;;;;4936030;29;20103;-80
2022/12/11 02:51:22;;;;;;;1999.90;999.90;;;0.80;99.90;;;;;;4919074;29;20034;-81
2022/12/11 02:53:52;;;;;;;1999.90;999.90;;;0.80;99.90;;;;;;4938732;29;20119;-81
2022/12/11 02:56:25;;;;;;;1999.90;999.90;;;0.70;99.90;;;;;;4935507;29;20410;-81
2022/12/11 02:58:56;;;;;;;1999.90;999.90;;;0.70;99.90;;;;;;4935899;29;20042;-81
2022/12/11 03:01:22;;;;;;;1999.90;999.90;;;0.70;99.90;;;;;;4918550;29;20035;-81
2022/12/11 03:03:48;;;;;;;1999.90;999.90;;;0.80;99.90;;;;;;4918229;29;20036;-81
2022/12/11 03:06:19;;;;;;;1999.90;999.90;;;0.70;99.90;;;;;;4935495;29;20091;-81
2022/12/11 03:08:44;;;;;;;1999.90;999.90;;;0.70;99.90;;;;;;4935356;29;20526;-81
2022/12/11 03:11:11;;;;;;;1999.90;999.90;;;0.70;99.90;;;;;;4921513;29;20099;-80
2022/12/11 03:13:40;;;;;;;1999.90;999.90;;;0.70;99.90;;;;;;4915139;29;20380;-81
2022/12/11 03:16:29;;;;;;;1999.90;999.90;;;0.70;99.90;;;;;;4916231;29;20063;-81
2022/12/11 03:19:19;;;;;;;1999.90;999.90;;;0.70;99.90;;;;;;4916494;29;20016;-81
2022/12/11 03:22:05;;;;;;;1999.90;999.90;;;0.70;99.90;;;;;;4899546;29;20032;-81
2022/12/11 03:24:40;;;;;;;1999.90;999.90;;;0.80;99.90;;;;;;4924885;29;20526;-80
2022/12/11 03:27:30;;;;;;;1999.90;999.90;;;0.80;99.90;;;;;;4934595;29;20510;-80
2022/12/11 03:30:11;;;;;;;1999.90;999.90;;;0.80;99.90;;;;;;4917893;29;20027;-80
2022/12/11 03:32:48;;;;;;;1999.90;999.90;;;0.80;99.90;;;;;;4935110;29;20188;-81
2022/12/11 03:35:24;;;;;;;1999.90;999.90;;;0.80;99.90;;;;;;4935302;29;20396;-81
2022/12/11 03:37:52;;;;;;;1999.90;999.90;;;0.80;99.90;;;;;;4934731;29;20106;-81
2022/12/11 03:40:21;;;;;;;1999.90;999.90;;;0.80;99.90;;;;;;4934667;29;20027;-80
2022/12/11 03:42:50;;;;;;;1999.90;999.90;;;0.90;99.90;;;;;;4934998;29;20035;-80
2022/12/11 03:45:17;;;;;;;1999.90;999.90;;;0.90;99.90;;;;;;4934620;29;20063;-81
2022/12/11 03:47:44;;;;;;;1999.90;999.90;;;0.90;99.90;;;;;;4928866;29;20024;-80
2022/12/11 03:50:13;;;;;;;1999.90;999.90;;;0.90;99.90;;;;;;4916027;29;20423;-81
2022/12/11 03:52:43;;;;;;;1999.90;999.90;;;0.80;99.90;;;;;;4915941;29;20035;-80
2022/12/11 03:55:12;;;;;;;1999.90;999.90;;;0.90;99.90;;;;;;4916001;29;20435;-80
2022/12/11 03:57:38;;;;;;;1999.90;999.90;;;0.80;99.90;;;;;;4915819;29;20016;-80
2022/12/11 04:00:10;;;;;;;1999.90;999.90;;;0.80;99.90;;;;;;4915788;29;20582;-81
2022/12/11 04:02:35;;;;;;;1999.90;999.90;;;0.90;99.90;;;;;;4915973;29;20119;-81
2022/12/11 04:05:01;;;;;;;1999.90;999.90;;;0.80;99.90;;;;;;4934548;29;20110;-81
2022/12/11 04:07:27;;;;;;;1999.90;999.90;;;0.80;99.90;;;;;;4917850;29;20040;-80
2022/12/11 04:09:53;;;;;;;1999.90;999.90;;;0.80;99.90;;;;;;4934638;29;20051;-80
2022/12/11 04:12:19;;;;;;;1999.90;999.90;;;0.80;99.90;;;;;;4934579;29;20038;-80
2022/12/11 04:15:03;;;;;;;1999.90;999.90;;;0.80;99.90;;;;;;4934608;29;20020;-80
2022/12/11 04:25:50;;;;;;;1999.90;999.90;;;0.70;99.90;;;;;;4915442;29;20046;-81
2022/12/11 04:28:16;;;;;;;1999.90;999.90;;;0.70;99.90;;;;;;4898530;29;20032;-81
2022/12/11 04:30:48;;;;;;;1999.90;999.90;;;0.70;99.90;;;;;;4898566;29;20032;-81
2022/12/11 04:33:13;;;;;;;1999.90;999.90;;;0.70;99.90;;;;;;4915875;29;20492;-80
2022/12/11 04:35:39;;;;;;;1999.90;999.90;;;0.60;99.90;;;;;;4915725;29;20087;-81
2022/12/11 04:38:04;;;;;;;1999.90;999.90;;;0.60;99.90;;;;;;4900733;29;20035;-81
2022/12/11 04:40:30;;;;;;;1999.90;999.90;;;0.60;99.90;;;;;;4918698;29;20055;-81
2022/12/11 04:42:56;;;;;;;1999.90;999.90;;;0.60;99.90;;;;;;4919144;29;20070;-81
2022/12/11 04:45:21;;;;;;;1999.90;999.90;;;0.60;99.90;;;;;;4912400;29;20035;-80
2022/12/11 04:47:47;;;;;;;1999.90;999.90;;;0.60;99.90;;;;;;4931370;29;20032;-78
2022/12/11 04:50:14;;;;;;;1999.90;999.90;;;0.60;99.90;;;;;;4918837;29;20039;-80
2022/12/11 04:52:40;;;;;;;1999.90;999.90;;;0.60;99.90;;;;;;4918985;29;20514;-81
2022/12/11 04:55:07;;;;;;;1999.90;999.90;;;0.60;99.90;;;;;;4918955;29;20028;-80
2022/12/11 04:57:33;;;;;;;1999.90;999.90;;;0.60;99.90;;;;;;4901947;29;20034;-81
2022/12/11 04:59:58;;;;;;;1999.90;999.90;;;0.60;99.90;;;;;;4918738;29;20470;-81
2022/12/11 05:02:25;;;;;;;1999.90;999.90;;;0.60;99.90;;;;;;4918564;29;20031;-81
2022/12/11 05:04:51;;;;;;;1999.90;999.90;;;0.60;99.90;;;;;;4934583;29;20074;-80
2022/12/11 05:07:16;;;;;;;1999.90;999.90;;;0.60;99.90;;;;;;4937724;29;20063;-80
2022/12/11 05:09:42;;;;;;;1999.90;999.90;;;0.60;99.90;;;;;;4936538;29;20412;-81
2022/12/11 05:12:08;;;;;;;1999.90;999.90;;;0.50;99.90;;;;;;4919938;29;20586;-80
2022/12/11 05:14:33;;;;;;;1999.90;999.90;;;0.50;99.90;;;;;;4937017;29;20537;-81
2022/12/11 05:16:59;;;;;;;1999.90;999.90;;;0.50;99.90;;;;;;4937349;29;20024;-81
2022/12/11 05:19:25;;;;;;;1999.90;999.90;;;0.50;99.90;;;;;;4920274;29;20032;-80
2022/12/11 05:21:50;;;;;;;1999.90;999.90;;;0.50;99.90;;;;;;4937421;29;20055;-81
2022/12/11 05:24:16;;;;;;;1999.90;999.90;;;0.50;99.90;;;;;;4914480;29;20644;-81
2022/12/11 05:26:42;;;;;;;1999.90;999.90;;;0.50;99.90;;;;;;4917909;29;20526;-81
2022/12/11 05:29:07;;;;;;;1999.90;999.90;;;0.60;99.90;;;;;;4918406;29;20501;-81
2022/12/11 05:31:33;;;;;;;1999.90;999.90;;;0.50;99.90;;;;;;4901272;29;20024;-81
2022/12/11 05:33:58;;;;;;;1999.90;999.90;;;0.60;99.90;;;;;;4918232;29;20415;-81
2022/12/11 05:36:30;;;;;;;1999.90;999.90;;;0.60;99.90;;;;;;4918093;29;20032;-81
2022/12/11 05:38:57;;;;;;;1999.90;999.90;;;0.60;99.90;;;;;;4900613;29;20068;-80
2022/12/11 05:41:25;;;;;;;1999.90;999.90;;;0.60;99.90;;;;;;4918077;29;20039;-81
2022/12/11 05:43:50;;;;;;;1999.90;999.90;;;0.60;99.90;;;;;;4918099;29;20025;-81
2022/12/11 05:46:19;;;;;;;1999.90;999.90;;;0.60;99.90;;;;;;4935319;29;20039;-81
2022/12/11 05:48:48;;;;;;;1999.90;999.90;;;0.60;99.90;;;;;;4921576;29;20036;-81
2022/12/11 05:51:14;;;;;;;1999.90;999.90;;;0.60;99.90;;;;;;4901132;29;20035;-80
2022/12/11 05:53:41;;;;;;;1999.90;999.90;;;0.70;99.90;;;;;;4917873;29;20496;-80
2022/12/11 05:56:10;;;;;;;1999.90;999.90;;;0.70;99.90;;;;;;4917703;29;20495;-81
2022/12/11 05:58:36;;;;;;;1999.90;999.90;;;0.70;99.90;;;;;;4917701;29;20079;-81
2022/12/11 06:01:06;;;;;;;1999.90;999.90;;;0.70;99.90;;;;;;4917777;29;20060;-80
2022/12/11 06:03:32;;;;;;;1999.90;999.90;;;0.70;99.90;;;;;;4924608;29;20042;-80
2022/12/11 06:06:01;;;;;;;1999.90;999.90;;;0.70;99.90;;;;;;4936646;29;20032;-80
2022/12/11 06:08:27;;;;;;;1999.90;999.90;;;0.70;99.90;;;;;;4936394;29;20082;-80
2022/12/11 06:10:53;;;;;;;1999.90;999.90;;;0.70;99.90;;;;;;4936452;29;20126;-81
2022/12/11 06:13:18;;;;;;;1999.90;999.90;;;0.70;99.90;;;;;;4936599;29;20479;-80
2022/12/11 06:15:44;;;;;;;1999.90;999.90;;;0.70;99.90;;;;;;4936612;29;20028;-80
2022/12/11 06:18:10;;;;;;;1999.90;999.90;;;0.70;99.90;;;;;;4936403;29;20031;-80
2022/12/11 06:20:36;;;;;;;1999.90;999.90;;;0.70;99.90;;;;;;4936267;29;20387;-80
2022/12/11 06:23:01;;;;;;;1999.90;999.90;;;0.70;99.90;;;;;;4919024;29;20083;-81
2022/12/11 06:25:27;;;;;;;1999.90;999.90;;;0.60;99.90;;;;;;4935918;29;20066;-81
2022/12/11 06:27:53;;;;;;;1999.90;999.90;;;0.70;99.90;;;;;;4936110;29;20068;-80
2022/12/11 06:30:19;;;;;;;1999.90;999.90;;;0.70;99.90;;;;;;4918966;29;20061;-80
2022/12/11 06:32:46;;;;;;;1999.90;999.90;;;0.60;99.90;;;;;;4919048;29;20020;-80
2022/12/11 06:35:12;;;;;;;1999.90;999.90;;;0.60;99.90;;;;;;4917873;29;20506;-80
2022/12/11 06:37:39;;;;;;;1999.90;999.90;;;0.60;99.90;;;;;;4916376;29;20028;-80
2022/12/11 06:40:07;;;;;;;1999.90;999.90;;;0.60;99.90;;;;;;4916715;29;20483;-80
2022/12/11 06:42:33;;;;;;;1999.90;999.90;;;0.60;99.90;;;;;;4916809;29;20030;-80
2022/12/11 06:44:59;;;;;;;1999.90;999.90;;;0.60;99.90;;;;;;4907245;29;20407;-81
2022/12/11 06:47:26;;;;;;;1999.90;999.90;;;0.60;99.90;;;;;;4915302;29;20020;-80
2022/12/11 06:49:52;;;;;;;1999.90;999.90;;;0.60;99.90;;;;;;4916834;29;20095;-80
2022/12/11 06:52:19;;;;;;;1999.90;999.90;;;0.60;99.90;;;;;;4916669;29;20034;-80
2022/12/11 06:54:44;;;;;;;1999.90;999.90;;;0.60;99.90;;;;;;4916848;29;20079;-80
2022/12/11 06:57:10;;;;;;;1999.90;999.90;;;0.60;99.90;;;;;;4916716;29;20050;-81
2022/12/11 06:59:36;;;;;;;1999.90;999.90;;;0.60;99.90;;;;;;4916726;29;20416;-81
2022/12/11 07:02:02;;;;;;;1999.90;999.90;;;0.50;99.90;;;;;;4916588;29;20043;-81
2022/12/11 07:04:29;;;;;;;1999.90;999.90;;;0.50;99.90;;;;;;4913481;29;20114;-80
2022/12/11 07:06:55;;;;;;;1999.90;999.90;;;0.50;99.90;;;;;;4935509;29;20032;-80
2022/12/11 07:09:21;;;;;;;1999.90;999.90;;;0.50;99.90;;;;;;4935686;29;20020;-81
2022/12/11 07:11:50;;;;;;;1999.90;999.90;;;0.50;99.90;;;;;;4935168;29;20134;-81
2022/12/11 07:14:15;;;;;;;1999.90;999.90;;;0.50;99.90;;;;;;4918071;29;20496;-81
2022/12/11 07:16:41;;;;;;;1999.90;999.90;;;0.50;99.90;;;;;;4898631;29;20091;-80
2022/12/11 07:19:07;;;;;;;1999.90;999.90;;;0.50;99.90;;;;;;4916744;29;20039;-81
2022/12/11 07:21:33;;;;;;;1999.90;999.90;;;0.50;99.90;;;;;;4931014;29;20032;-81
2022/12/11 07:23:58;;;;;;;1999.90;999.90;;;0.50;99.90;;;;;;4934570;29;20127;-80
2022/12/11 07:26:24;;;;;;;1999.90;999.90;;;0.50;99.90;;;;;;4899088;29;20043;-81
2022/12/11 07:28:50;;;;;;;1999.90;999.90;;;0.50;99.90;;;;;;4916171;29;20027;-81
2022/12/11 07:31:21;;;;;;;1999.90;999.90;;;0.50;99.90;;;;;;4916458;29;20539;-81
2022/12/11 07:33:51;;;;;;;1999.90;999.90;;;0.50;99.90;;;;;;4916431;29;20367;-81
2022/12/11 07:36:17;;;;;;;1999.90;999.90;;;0.50;99.90;;;;;;4916092;29;20035;-81
2022/12/11 07:38:42;;;;;;;1999.90;999.90;;;0.50;99.90;;;;;;4915409;29;20024;-81
2022/12/11 07:41:11;;;;;;;1999.90;999.90;;;0.50;99.90;;;;;;4916185;29;20036;-81
2022/12/11 07:43:37;;;;;;;1999.90;999.90;;;0.50;99.90;;;;;;4916314;29;20448;-81
2022/12/11 07:46:06;;;;;;;1999.90;999.90;;;0.50;99.90;;;;;;4916138;29;20044;-82
2022/12/11 07:48:34;;;;;;;1999.90;999.90;;;0.50;99.90;;;;;;4928023;29;20131;-81
2022/12/11 07:51:16;;;;;;;1999.90;999.90;;;0.50;99.90;;;;;;4935110;29;20499;-81
2022/12/11 07:53:43;;;;;;;1999.90;999.90;;;0.50;99.90;;;;;;4935208;29;20102;-81
2022/12/11 07:56:08;;;;;;;1999.90;999.90;;;0.50;99.90;;;;;;4933480;29;20126;-81
2022/12/11 07:58:34;;;;;;;1999.90;999.90;;;0.50;99.90;;;;;;4899445;29;20119;-81
2022/12/11 08:01:00;;;;;;;1999.90;999.90;;;0.50;99.90;;;;;;4916294;29;20431;-81
2022/12/11 08:03:26;;;;;;;1999.90;999.90;;;0.50;99.90;;;;;;4921972;29;20038;-81
2022/12/11 08:05:52;;;;;;;1999.90;999.90;;;0.60;99.90;;;;;;4934853;29;20024;-81
2022/12/11 08:08:19;;;;;;;1999.90;999.90;;;0.60;99.90;;;;;;4934655;29;20028;-81
2022/12/11 08:10:44;;;;;;;1999.90;999.90;;;0.60;99.90;;;;;;4917625;29;20398;-81
2022/12/11 08:13:10;;;;;;;1999.90;999.90;;;0.50;99.90;;;;;;4938003;29;20106;-80
2022/12/11 08:15:36;;;;;;;1999.90;999.90;;;0.60;99.90;;;;;;4921763;29;20019;-81
2022/12/11 08:18:02;;;;;;;1999.90;999.90;;;0.60;99.90;;;;;;4938374;29;20038;-80
2022/12/11 08:20:29;;;;;;;1999.90;999.90;;;0.60;99.90;;;;;;4931345;29;20131;-81
2022/12/11 08:22:55;;;;;;;1999.90;999.90;;;0.60;99.90;;;;;;4919310;29;20036;-81
2022/12/11 08:25:21;;;;;;;1999.90;999.90;;;0.70;99.90;;;;;;4919145;29;20511;-81
2022/12/11 08:27:47;;;;;;;1999.90;999.90;;;0.60;99.90;;;;;;4919366;29;20150;-81
2022/12/11 08:30:13;;;;;;;1999.90;999.90;;;0.60;99.90;;;;;;4919135;29;20107;-81
2022/12/11 08:32:38;;;;;;;1999.90;999.90;;;0.60;99.90;;;;;;4919153;29;20024;-81
2022/12/11 08:35:04;;;;;;;1999.90;999.90;;;0.60;99.90;;;;;;4919271;29;20043;-81
2022/12/11 08:37:30;;;;;;;1999.90;999.90;;;0.60;99.90;;;;;;4919438;29;20059;-81
2022/12/11 08:39:56;;;;;;;1999.90;999.90;;;0.70;99.90;;;;;;4916110;29;20067;-80
2022/12/11 08:42:22;;;;;;;1999.90;999.90;;;0.70;99.90;;;;;;4919078;29;20021;-81
2022/12/11 08:44:47;;;;;;;1999.90;999.90;;;0.80;99.90;;;;;;4924947;29;20099;-81
2022/12/11 08:47:14;;;;;;;1999.90;999.90;;;0.70;99.90;;;;;;4938102;29;20028;-81
2022/12/11 08:49:40;;;;;;;1999.90;999.90;;;0.70;99.90;;;;;;4937990;29;20126;-81
2022/12/11 08:52:06;;;;;;;1999.90;999.90;;;0.60;99.90;;;;;;4920974;29;20495;-81
2022/12/11 08:54:32;;;;;;;1999.90;999.90;;;0.60;99.90;;;;;;4937889;29;20024;-81
2022/12/11 08:56:57;;;;;;;1999.90;999.90;;;0.60;99.90;;;;;;4937506;29;20032;-81
2022/12/11 08:59:24;;;;;;;1999.90;999.90;;;0.70;99.90;;;;;;4938067;29;20038;-81
2022/12/11 09:01:50;;;;;;;1999.90;999.90;;;0.70;99.90;;;;;;4937724;29;20467;-80
2022/12/11 09:04:16;;;;;;;1999.90;999.90;;;0.90;99.90;;;;;;4937798;29;20085;-81
2022/12/11 09:06:42;;;;;;;1999.90;999.90;;;1.10;99.90;;;;;;4937661;29;20107;-81
2022/12/11 09:09:08;;;;;;;1999.90;999.90;;;1.20;99.90;;;;;;4937587;29;20103;-81
2022/12/11 09:11:36;;;;;;;1999.90;999.90;;;1.40;99.90;;;;;;4937714;29;20484;-81
2022/12/11 09:14:03;;;;;;;1999.90;999.90;;;1.30;99.90;;;;;;4937452;29;20026;-81
2022/12/11 09:16:29;;;;;;;1999.90;999.90;;;1.50;99.90;;;;;;4937405;29;20039;-81
2022/12/11 09:18:56;;;;;;;1999.90;999.90;;;1.50;99.90;;;;;;4937502;29;20035;-81
2022/12/11 09:21:25;;;;;;;1999.90;999.90;;;1.60;99.90;;;;;;4937227;29;20027;-81
2022/12/11 09:23:59;;;;;;;1999.90;999.90;;;1.70;99.90;;;;;;4937207;29;20052;-81
2022/12/11 09:26:26;;;;;;;1999.90;999.90;;;1.60;99.90;;;;;;4923622;29;20032;-81
2022/12/11 09:28:52;;;;;;;1999.90;999.90;;;1.70;99.90;;;;;;4918200;29;20032;-80
2022/12/11 09:31:27;;;;;;;1999.90;999.90;;;1.90;99.90;;;;;;4918197;29;20058;-80
2022/12/11 09:33:56;;;;;;;1999.90;999.90;;;1.90;99.90;;;;;;4918517;29;20035;-81
2022/12/11 09:36:23;;;;;;;1999.90;999.90;;;2.10;99.90;;;;;;4901255;29;20032;-80
2022/12/11 09:38:49;;;;;;;1999.90;999.90;;;2.00;99.90;;;;;;4916547;29;20024;-81
2022/12/11 09:41:21;;;;;;;1999.90;999.90;;;1.90;99.90;;;;;;4917145;29;20427;-80
2022/12/11 09:43:50;;;;;;;1999.90;999.90;;;2.00;99.90;;;;;;4918072;29;20025;-80
2022/12/11 09:46:16;;;;;;;1999.90;999.90;;;2.00;99.90;;;;;;4935225;29;20086;-81
2022/12/11 09:48:45;;;;;;;1999.90;999.90;;;1.90;99.90;;;;;;4919784;29;20530;-80
2022/12/11 09:51:39;;;;;;;1999.90;999.90;;;1.90;99.90;;;;;;4937238;29;20024;-81
2022/12/11 09:54:05;;;;;;;;;;;1.90;99.90;;;;;;4937380;29;20027;-80
2022/12/11 09:56:45;;;;;;;1999.90;999.90;;;2.00;99.90;;;;;;4935937;29;19915;-81
2022/12/11 09:59:20;;;;;;;1999.90;999.90;;;2.10;99.90;;;;;;4899027;29;20036;-80
2022/12/11 10:02:18;;;;;;;1999.90;999.90;;;2.10;99.90;;;;;;4897747;29;20034;-81
2022/12/11 10:05:05;;;;;;;1999.90;999.90;;;2.10;99.90;;;;;;4877622;29;20448;-81
2022/12/11 10:07:40;;;;;;;1999.90;999.90;;;2.10;99.90;;;;;;4898925;29;20032;-81
2022/12/11 10:10:21;;;;;;;1999.90;999.90;;;2.20;99.90;;;;;;4898579;29;20424;-80
2022/12/11 10:13:19;;;;;;;1999.90;999.90;;;2.10;99.90;;;;;;4881085;29;20040;-80
2022/12/11 10:16:06;;;;;;;1999.90;999.90;;;2.20;99.90;;;;;;4897998;29;20396;-80
2022/12/11 10:18:32;;;;;;;1999.90;999.90;;;2.20;99.90;;;;;;4898265;29;20105;-80
2022/12/11 10:21:01;;;;;;;1999.90;999.90;;;2.20;99.90;;;;;;4904630;29;20016;-80
2022/12/11 10:23:50;;;;;;;1999.90;999.90;;;2.30;99.90;;;;;;4917170;29;20071;-80
2022/12/11 10:26:18;;;;;;;1999.90;999.90;;;2.40;99.90;;;;;;4907582;29;20040;-81
2022/12/11 10:28:44;;;;;;;1999.90;999.90;;;2.40;99.90;;;;;;4921315;29;20019;-81
2022/12/11 10:31:31;;;;;;;1999.90;999.90;;;2.50;99.90;;;;;;4938800;29;20028;-81
2022/12/11 10:34:19;;;;;;;1999.90;999.90;;;2.60;99.90;;;;;;4939550;29;20032;-81
2022/12/11 10:36:45;;;;;;;1999.90;999.90;;;2.90;99.90;;;;;;4931169;29;20028;-81
2022/12/11 10:39:17;;;;;;;1999.90;999.90;;;3.00;99.90;;;;;;4926001;29;20036;-81
2022/12/11 10:41:49;;;;;;;1999.90;999.90;;;2.90;99.90;;;;;;4899698;29;20025;-81
2022/12/11 10:44:24;;;;;;;1999.90;999.90;;;2.80;99.90;;;;;;4921134;29;20036;-81
2022/12/11 10:47:09;;;;;;;1999.90;999.90;;;2.80;99.90;;;;;;4935758;29;20055;-81
2022/12/11 10:49:36;;;;;;;1999.90;999.90;;;2.90;99.90;;;;;;4935961;29;20038;-81
2022/12/11 10:52:11;;;;;;;1999.90;999.90;;;2.80;99.90;;;;;;4918631;29;20487;-81
2022/12/11 10:54:39;;;;;;;1999.90;999.90;;;2.80;99.90;;;;;;4918654;29;20035;-81
2022/12/11 10:57:08;;;;;;;1999.90;999.90;;;2.70;99.90;;;;;;4935720;29;20058;-81
2022/12/11 10:59:37;;;;;;;1999.90;999.90;;;2.80;99.90;;;;;;4936012;29;20035;-81
2022/12/11 11:02:04;;;;;;;1999.90;999.90;;;2.80;99.90;;;;;;4935715;29;20055;-81
2022/12/11 11:04:37;;;;;;;1999.90;999.90;;;2.80;99.90;;;;;;4924600;29;20040;-81
2022/12/11 11:07:10;;;;;;;1999.90;999.90;;;3.10;99.90;;;;;;4916652;29;20079;-81
2022/12/11 11:09:36;;;;;;;;;;;3.20;99.90;;;;;;4900367;29;20522;-81
2022/12/11 11:12:02;;;;;;;1999.90;999.90;;;3.20;99.90;;;;;;4916333;29;19911;-81
2022/12/11 11:14:28;;;;;;;1999.90;999.90;;;3.40;99.90;;;;;;4916405;29;20067;-81
2022/12/11 11:16:59;;;;;;;1999.90;999.90;;;3.20;99.90;;;;;;4916439;29;20071;-81
2022/12/11 11:19:34;;;;;;;1999.90;999.90;;;3.40;99.90;;;;;;4899577;29;20028;-81
2022/12/11 11:22:16;;;;;;;1999.90;999.90;;;3.10;99.90;;;;;;4929467;29;20729;-81
2022/12/11 11:24:53;;;;;;;1999.90;999.90;;;3.30;99.90;;;;;;4917950;29;20053;-81
2022/12/11 11:27:28;;;;;;;1999.90;999.90;;;3.40;99.90;;;;;;4935509;29;20038;-81
2022/12/11 11:29:59;;;;;;;1999.90;999.90;;;3.80;99.90;;;;;;4935151;29;20027;-81
2022/12/11 11:32:37;;;;;;;1999.90;999.90;;;3.30;99.90;;;;;;4935257;29;20036;-81
2022/12/11 11:35:12;;;;;;;1999.90;999.90;;;3.30;99.90;;;;;;4918155;29;20024;-81
2022/12/11 11:37:40;;;;;;;1999.90;999.90;;;3.30;99.90;;;;;;4935528;29;20503;-81
2022/12/11 11:40:30;;;;;;;1999.90;999.90;;;3.30;99.90;;;;;;4934972;29;20028;-81
2022/12/11 11:43:06;;;;;;;1999.90;999.90;;;3.70;99.90;;;;;;4899462;29;20058;-81
2022/12/11 11:45:45;;;;;;;1999.90;999.90;;;3.90;99.90;;;;;;4927758;29;20031;-81
2022/12/11 11:48:26;;;;;;;1999.90;999.90;;;3.90;99.90;;;;;;4917323;29;20028;-81
2022/12/11 11:50:52;;;;;;;1999.90;999.90;;;4.10;99.90;;;;;;4935162;29;20035;-81
2022/12/11 11:53:36;;;;;;;1999.90;999.90;;;4.20;99.90;;;;;;4935485;29;20024;-81
2022/12/11 11:56:21;;;;;;;1999.90;999.90;;;4.20;99.90;;;;;;4934325;29;20055;-81
2022/12/11 11:59:05;;;;;;;1999.90;999.90;;;3.90;99.90;;;;;;4920284;29;20475;-81
2022/12/11 12:01:31;;;;;;;1999.90;999.90;;;4.20;99.90;;;;;;4916221;29;20037;-81
2022/12/11 12:03:58;;;;;;;1999.90;999.90;;;4.20;99.90;;;;;;4915976;29;20032;-81
2022/12/11 12:06:38;;;;;;;1999.90;999.90;;;4.50;99.90;;;;;;4898932;29;20514;-81
2022/12/11 12:09:24;;;;;;;1999.90;999.90;;;4.50;99.90;;;;;;4899004;29;20024;-81
2022/12/11 12:12:28;;;;;;;1999.90;999.90;;;4.30;99.90;;;;;;4915627;29;20032;-81
2022/12/11 12:15:11;;;;;;;1999.90;999.90;;;4.30;99.90;;;;;;4916048;29;20031;-81
2022/12/11 12:17:55;;;;;;;1999.90;999.90;;;4.40;99.90;;;;;;4899007;29;20127;-82
2022/12/11 12:20:31;;;;;;;1999.90;999.90;;;4.50;99.90;;;;;;4915721;29;20125;-81
2022/12/11 12:23:03;;;;;;;1999.90;999.90;;;4.80;99.90;;;;;;4897055;29;20048;-81
2022/12/11 12:25:51;;;;;;;1999.90;999.90;;;4.80;99.90;;;;;;4896724;29;20048;-81
2022/12/11 12:28:53;;;;;;;1999.90;999.90;;;4.70;99.90;;;;;;4896855;29;20084;-81
2022/12/11 12:31:31;;;;;;;1999.90;999.90;;;5.10;99.90;;;;;;4895880;29;20033;-81
2022/12/11 12:34:02;;;;;;;1999.90;999.90;;;5.30;99.90;;;;;;4896964;29;20021;-81